Time;durP1;ratioP1;P1;durP2;ratioP2;P2;SDS_P1;SDS_P2;PMS_P1;PMS_P2;Temp;Humidity;BMP_temperature;BMP_pressure;BME280_temperature;BME280_humidity;BME280_pressure;Samples;Min_cycle;Max_cycle;Signal;HPM_P1;HPM_P2
2022/03/23 00:01:18;;;;;;;;;47.50;40.50;;;;;15.44;38.24;102498.38;4962138;28;45477;-79
2022/03/23 00:03:44;;;;;;;;;48.00;41.50;;;;;15.28;38.35;102479.22;4979138;28;45580;-79
2022/03/23 00:06:12;;;;;;;;;51.25;42.00;;;;;15.17;38.34;102469.75;4976984;28;45438;-79
2022/03/23 00:08:37;;;;;;;;;50.75;42.00;;;;;15.09;38.34;102466.44;4976458;28;45758;-79
2022/03/23 00:11:03;;;;;;;;;51.25;42.75;;;;;15.20;38.63;102485.75;4967803;28;60339;-79
2022/03/23 00:13:28;;;;;;;;;52.75;39.25;;;;;15.19;38.63;102491.16;4977557;28;45784;-79
2022/03/23 00:15:54;;;;;;;;;52.25;38.50;;;;;15.32;38.83;102524.75;4977120;28;45648;-79
2022/03/23 00:18:19;;;;;;;;;53.75;40.00;;;;;15.25;38.80;102514.28;4976420;28;45414;-79
2022/03/23 00:20:45;;;;;;;;;53.00;40.75;;;;;15.10;38.74;102494.16;4976643;28;45660;-79
2022/03/23 00:23:11;;;;;;;;;55.50;43.50;;;;;15.26;38.86;102526.75;4976942;28;45322;-79
2022/03/23 00:25:37;;;;;;;;;58.50;44.75;;;;;15.21;38.80;102516.16;4975836;28;45438;-79
2022/03/23 00:28:04;;;;;;;;;57.75;45.50;;;;;15.08;38.95;102513.03;4959503;28;45537;-79
2022/03/23 00:30:31;;;;;;;;;51.50;40.50;;;;;15.12;38.82;102529.91;4957282;28;45570;-79
2022/03/23 00:32:57;;;;;;;;;54.50;43.75;;;;;15.10;38.94;102521.03;4957486;28;45440;-79
2022/03/23 00:35:23;;;;;;;;;52.50;40.50;;;;;15.06;39.18;102516.72;4957700;28;45472;-79
2022/03/23 00:37:48;;;;;;;;;57.50;45.00;;;;;15.05;39.30;102523.00;4972184;28;45444;-79
2022/03/23 00:40:14;;;;;;;;;58.00;45.00;;;;;14.94;39.30;102504.59;4976320;28;45545;-79
2022/03/23 00:42:40;;;;;;;;;56.75;42.75;;;;;15.01;39.26;102524.03;4971586;28;45415;-79
2022/03/23 00:45:06;;;;;;;;;53.00;41.75;;;;;14.97;39.63;102520.56;4957545;28;45462;-79
2022/03/23 00:47:31;;;;;;;;;53.50;41.00;;;;;14.94;39.58;102526.06;4983696;27;45389;-78
2022/03/23 00:49:57;;;;;;;;;55.00;44.75;;;;;14.77;39.44;102503.34;4961304;28;45432;-79
2022/03/23 00:52:22;;;;;;;;;53.50;43.50;;;;;14.90;39.57;102527.09;4971960;28;45518;-78
2022/03/23 00:54:47;;;;;;;;;52.00;39.00;;;;;14.72;39.94;102496.34;4957494;28;45272;-79
2022/03/23 00:57:13;;;;;;;;;49.25;38.25;;;;;14.87;39.80;102533.44;4965050;28;46317;-79
2022/03/23 00:59:39;;;;;;;;;50.75;39.25;;;;;14.84;39.75;102522.78;4976208;28;45527;-79
2022/03/23 01:02:05;;;;;;;;;58.25;43.75;;;;;14.83;39.67;102528.22;4976321;28;45769;-79
2022/03/23 01:04:31;;;;;;;;;51.50;41.25;;;;;14.66;39.76;102502.81;4961157;28;45484;-79
2022/03/23 01:06:57;;;;;;;;;53.50;39.75;;;;;14.67;39.62;102509.91;4976455;28;45510;-79
2022/03/23 01:09:23;;;;;;;;;53.50;42.00;;;;;14.73;39.94;102527.66;4976003;28;45342;-79
2022/03/23 01:11:50;;;;;;;;;53.50;41.25;;;;;14.70;39.85;102527.72;4976598;28;45422;-79
2022/03/23 01:14:16;;;;;;;;;53.75;44.50;;;;;14.43;40.00;102483.84;4962487;28;45596;-79
2022/03/23 01:16:42;;;;;;;;;58.50;43.25;;;;;14.65;40.09;102527.88;4969197;28;45553;-79
2022/03/23 01:19:08;;;;;;;;;52.75;41.75;;;;;14.62;40.19;102521.75;4975876;28;45381;-79
2022/03/23 01:21:33;;;;;;;;;55.50;43.75;;;;;14.57;40.05;102519.22;4976101;28;45546;-79
2022/03/23 01:23:58;;;;;;;;;54.50;43.50;;;;;14.54;40.32;102517.50;4989338;28;45415;-79
2022/03/23 01:26:24;;;;;;;;;47.00;38.75;;;;;14.38;40.21;102493.88;4988633;28;45471;-79
2022/03/23 01:28:49;;;;;;;;;57.25;45.75;;;;;14.48;40.58;102516.78;4971023;28;45332;-79
2022/03/23 01:31:14;;;;;;;;;49.00;41.50;;;;;14.26;40.53;102487.94;4965453;28;45349;-79
2022/03/23 01:33:40;;;;;;;;;57.50;43.75;;;;;14.02;40.66;102452.03;4964456;28;45441;-79
2022/03/23 01:36:05;;;;;;;;;57.00;46.25;;;;;14.28;40.70;102495.94;4971503;28;57149;-79
2022/03/23 01:38:30;;;;;;;;;52.25;43.25;;;;;14.15;40.73;102479.34;4959542;28;45445;-79
2022/03/23 01:40:56;;;;;;;;;54.75;45.75;;;;;14.20;40.81;102500.66;4970399;28;45586;-79
2022/03/23 01:43:21;;;;;;;;;56.25;42.75;;;;;14.30;40.81;102513.72;4966048;28;45394;-79
2022/03/23 01:45:47;;;;;;;;;46.50;40.75;;;;;14.24;41.17;102507.69;4963504;28;45456;-79
2022/03/23 01:48:12;;;;;;;;;52.75;43.25;;;;;14.05;41.00;102481.44;4972224;28;45410;-79
2022/03/23 01:50:37;;;;;;;;;61.50;49.75;;;;;14.08;41.13;102493.88;4962676;28;45401;-79
2022/03/23 01:53:03;;;;;;;;;59.25;47.00;;;;;14.13;41.15;102508.00;4952516;28;45709;-79
2022/03/23 01:55:28;;;;;;;;;62.50;48.75;;;;;14.11;41.11;102504.50;4971706;28;46524;-79
2022/03/23 01:57:54;;;;;;;;;62.25;49.75;;;;;14.02;40.74;102500.28;4969767;28;45376;-79
2022/03/23 02:00:20;;;;;;;;;53.25;41.00;;;;;14.08;41.43;102515.31;4959517;28;45307;-79
2022/03/23 02:02:47;;;;;;;;;59.00;47.75;;;;;14.06;41.35;102509.13;4971544;28;45647;-79
2022/03/23 02:05:13;;;;;;;;;57.50;44.50;;;;;13.93;41.71;102489.88;4963810;28;45422;-79
2022/03/23 02:07:39;;;;;;;;;55.75;46.75;;;;;14.00;41.47;102509.28;4975649;28;45315;-79
2022/03/23 02:10:08;;;;;;;;;55.00;45.50;;;;;13.80;41.67;102480.41;4974784;28;45561;-79
2022/03/23 02:12:33;;;;;;;;;60.50;48.25;;;;;13.92;41.66;102501.50;4990314;28;45662;-79
2022/03/23 02:15:08;;;;;;;;;57.50;46.75;;;;;13.81;41.49;102491.06;4975847;28;46175;-78
2022/03/23 02:17:34;;;;;;;;;64.25;49.25;;;;;13.85;41.80;102505.28;4986083;27;45508;-78
2022/03/23 02:20:00;;;;;;;;;58.00;47.50;;;;;13.79;41.76;102505.44;4968407;28;45541;-79
2022/03/23 02:22:25;;;;;;;;;64.25;49.00;;;;;13.65;42.03;102489.75;4964135;28;45434;-79
2022/03/23 02:24:50;;;;;;;;;59.75;47.50;;;;;13.77;41.67;102512.69;4972278;28;45446;-79
2022/03/23 02:27:16;;;;;;;;;49.50;37.50;;;;;13.52;41.77;102476.72;4968306;28;52850;-79
2022/03/23 02:29:42;;;;;;;;;61.25;45.00;;;;;13.68;42.01;102511.13;4976112;28;45701;-79
2022/03/23 02:32:08;;;;;;;;;56.50;46.75;;;;;13.60;41.99;102487.25;5002686;28;45217;-79
2022/03/23 02:34:35;;;;;;;;;53.25;46.00;;;;;13.71;41.56;102519.06;4971034;28;46976;-78
2022/03/23 02:37:00;;;;;;;;;60.75;46.75;;;;;13.39;41.83;102453.00;4968761;28;45709;-79
2022/03/23 02:39:26;;;;;;;;;61.00;45.75;;;;;13.56;41.49;102495.41;4978089;27;45442;-79
2022/03/23 02:41:53;;;;;;;;;57.00;42.50;;;;;13.67;41.33;102514.72;4983713;27;45490;-79
2022/03/23 02:44:20;;;;;;;;;55.50;41.25;;;;;13.64;41.34;102518.34;5028212;28;46494;-79
2022/03/23 02:46:45;;;;;;;;;54.75;44.75;;;;;13.50;41.46;102496.44;5025344;28;45426;-79
2022/03/23 02:49:11;;;;;;;;;55.00;44.50;;;;;13.66;40.81;102532.59;4981640;28;45395;-79
2022/03/23 02:51:37;;;;;;;;;57.75;46.00;;;;;13.63;41.11;102532.69;4973774;28;45328;-79
2022/03/23 03:02:49;;;;;;;;;49.25;38.50;;;;;13.51;40.16;102508.94;4974903;28;45886;-79
2022/03/23 03:05:14;;;;;;;;;52.75;39.50;;;;;13.36;40.34;102494.13;4976801;28;46076;-79
2022/03/23 03:10:25;;;;;;;;;56.50;44.00;;;;;13.57;40.11;102548.06;4977894;28;45463;-79
2022/03/23 03:12:52;;;;;;;;;50.75;40.00;;;;;13.30;39.88;102505.03;4986055;28;45581;-79
2022/03/23 03:15:19;;;;;;;;;53.50;41.50;;;;;13.54;40.27;102548.16;4970257;28;46153;-79
2022/03/23 03:17:48;;;;;;;;;52.00;41.50;;;;;13.51;40.06;102544.63;4972714;28;46405;-79
2022/03/23 03:20:15;;;;;;;;;45.25;38.50;;;;;13.50;39.29;102541.97;4996975;28;45298;-79
2022/03/23 03:22:43;;;;;;;;;41.50;36.25;;;;;13.22;38.78;102501.63;5014979;28;45393;-79
2022/03/23 03:25:12;;;;;;;;;41.33;31.67;;;;;13.50;38.26;102556.25;4993272;28;47467;-81
2022/03/23 03:27:40;;;;;;;;;34.25;31.25;;;;;13.54;38.18;102551.69;5011219;28;45432;-78
2022/03/23 03:30:08;;;;;;;;;38.00;31.67;;;;;13.46;37.63;102545.66;5077398;28;45471;-79
2022/03/23 03:32:34;;;;;;;;;33.33;29.00;;;;;13.36;37.86;102514.69;4972337;28;45641;-78
2022/03/23 03:35:00;;;;;;;;;35.67;31.00;;;;;13.49;36.88;102545.59;4987779;27;48344;-79
2022/03/23 03:37:25;;;;;;;;;35.67;28.00;;;;;13.38;36.86;102528.91;4972938;28;45333;-79
2022/03/23 03:39:51;;;;;;;;;26.33;26.00;;;;;13.60;35.70;102566.72;4962701;28;45440;-79
2022/03/23 03:42:17;;;;;;;;;34.33;27.33;;;;;13.41;35.25;102537.75;4973279;28;45505;-79
2022/03/23 03:44:44;;;;;;;;;29.67;23.67;;;;;13.50;34.96;102564.28;4973882;28;45343;-79
2022/03/23 03:47:10;;;;;;;;;28.33;23.33;;;;;13.56;35.08;102573.09;4958376;28;45596;-79
2022/03/23 03:49:35;;;;;;;;;29.00;22.67;;;;;13.17;35.13;102503.56;4965663;28;45379;-79
2022/03/23 03:52:01;;;;;;;;;30.67;26.33;;;;;13.54;35.08;102572.25;4974560;28;45587;-79
2022/03/23 03:54:26;;;;;;;;;28.33;23.33;;;;;13.39;34.91;102547.63;4974584;28;45919;-79
2022/03/23 03:56:51;;;;;;;;;28.00;24.00;;;;;13.27;34.79;102529.16;4971074;28;45368;-79
2022/03/23 03:59:16;;;;;;;;;29.33;25.67;;;;;13.38;34.83;102545.00;4973698;28;45625;-79
2022/03/23 04:01:42;;;;;;;;;25.67;24.67;;;;;13.51;34.53;102581.25;4974845;28;45359;-79
2022/03/23 04:04:08;;;;;;;;;22.00;21.33;;;;;13.32;34.39;102542.47;4971811;28;45500;-79
2022/03/23 04:06:33;;;;;;;;;27.00;25.33;;;;;13.50;34.14;102580.34;4954740;28;45278;-79
2022/03/23 04:08:59;;;;;;;;;29.33;25.00;;;;;13.30;34.35;102548.75;4963439;28;45711;-79
2022/03/23 04:11:24;;;;;;;;;24.33;24.00;;;;;13.38;34.52;102567.28;4972650;28;45441;-79
2022/03/23 04:13:49;;;;;;;;;25.67;24.33;;;;;13.21;34.39;102540.94;4974026;28;45500;-79
2022/03/23 04:16:15;;;;;;;;;28.33;24.00;;;;;13.36;34.37;102568.25;5016759;28;51766;-79
2022/03/23 04:18:40;;;;;;;;;22.67;21.33;;;;;13.39;34.65;102579.78;4992602;28;45232;-79
2022/03/23 04:21:05;;;;;;;;;25.67;25.67;;;;;13.28;34.52;102569.34;4956350;28;47456;-78
2022/03/23 04:23:32;;;;;;;;;27.33;26.00;;;;;13.29;34.67;102575.56;4973816;28;45751;-79
2022/03/23 04:25:57;;;;;;;;;28.00;23.33;;;;;13.16;34.72;102556.22;4956321;28;45398;-79
2022/03/23 04:28:23;;;;;;;;;26.00;26.00;;;;;13.32;34.44;102599.56;4973502;28;45403;-79
2022/03/23 04:30:48;;;;;;;;;29.33;24.00;;;;;12.93;34.73;102526.50;4973920;28;45574;-79
2022/03/23 04:33:14;;;;;;;;;27.67;26.00;;;;;12.81;34.90;102507.13;4973989;28;45990;-79
2022/03/23 04:35:39;;;;;;;;;25.00;23.67;;;;;13.31;34.79;102592.47;4973808;28;45256;-79
2022/03/23 04:38:05;;;;;;;;;25.67;23.00;;;;;13.31;34.76;102597.84;4973486;28;45545;-79
2022/03/23 04:40:31;;;;;;;;;21.67;21.67;;;;;13.32;34.57;102604.06;4974362;28;45402;-79
2022/03/23 04:42:58;;;;;;;;;30.67;24.67;;;;;13.32;34.71;102602.25;4973611;28;46119;-79
2022/03/23 04:45:24;;;;;;;;;28.33;25.33;;;;;13.19;34.65;102576.69;4976550;28;45464;-79
2022/03/23 04:47:50;;;;;;;;;25.67;22.67;;;;;13.14;35.24;102574.13;4976888;28;45462;-79
2022/03/23 04:50:16;;;;;;;;;26.33;22.33;;;;;13.07;35.09;102577.88;4976468;28;45568;-79
2022/03/23 04:52:43;;;;;;;;;27.00;23.00;;;;;13.25;35.51;102616.69;4976092;28;46641;-79
2022/03/23 04:55:10;;;;;;;;;27.33;22.67;;;;;13.03;35.69;102582.41;4976527;28;45583;-79
2022/03/23 04:57:35;;;;;;;;;24.67;22.67;;;;;13.18;35.50;102621.34;4958993;28;45438;-79
2022/03/23 05:00:01;;;;;;;;;31.33;23.00;;;;;12.96;35.74;102594.19;4976513;28;45319;-79
2022/03/23 05:02:27;;;;;;;;;28.67;24.67;;;;;13.13;35.91;102619.66;4975692;28;45457;-79
2022/03/23 05:04:52;;;;;;;;;26.67;23.33;;;;;12.89;36.04;102581.88;4976793;28;45395;-79
2022/03/23 05:07:18;;;;;;;;;21.67;20.33;;;;;13.00;35.97;102611.94;4976757;28;45370;-78
2022/03/23 05:09:45;;;;;;;;;30.00;24.67;;;;;12.83;36.05;102582.00;4965245;28;45371;-79
2022/03/23 05:12:13;;;;;;;;;23.33;23.33;;;;;12.76;36.41;102580.41;4956757;28;46051;-79
2022/03/23 05:14:39;;;;;;;;;23.33;23.00;;;;;12.92;36.61;102615.72;5029015;28;46190;-79
2022/03/23 05:17:04;;;;;;;;;25.00;22.00;;;;;12.87;36.85;102614.00;4974946;28;45917;-79
2022/03/23 05:19:30;;;;;;;;;26.00;26.00;;;;;12.79;36.80;102621.34;4957021;28;45433;-79
2022/03/23 05:21:55;;;;;;;;;29.67;25.33;;;;;12.73;36.96;102616.13;4970666;28;45890;-79
2022/03/23 05:24:20;;;;;;;;;28.00;24.00;;;;;12.39;37.03;102567.88;4991534;27;45438;-79
2022/03/23 05:26:46;;;;;;;;;28.67;21.33;;;;;12.22;37.43;102552.16;4975181;28;45411;-79
2022/03/23 05:29:11;;;;;;;;;30.33;25.33;;;;;12.48;37.04;102606.88;4976646;28;45655;-79
2022/03/23 05:31:37;;;;;;;;;22.33;20.33;;;;;12.56;37.22;102621.84;4975993;28;48352;-79
2022/03/23 05:34:04;;;;;;;;;27.67;22.67;;;;;12.28;37.47;102589.47;4976617;28;45472;-79
2022/03/23 05:36:30;;;;;;;;;28.67;24.00;;;;;12.42;37.48;102621.28;4976291;28;45410;-78
2022/03/23 05:38:56;;;;;;;;;25.00;22.00;;;;;12.18;37.84;102594.16;4983427;28;45362;-79
2022/03/23 05:41:22;;;;;;;;;26.33;25.33;;;;;12.28;37.90;102615.34;4984624;28;46206;-79
2022/03/23 05:43:47;;;;;;;;;27.33;23.33;;;;;12.17;38.12;102613.75;4976126;28;45387;-79
2022/03/23 05:46:13;;;;;;;;;26.00;22.67;;;;;12.18;38.05;102623.56;4976368;28;45264;-79
2022/03/23 05:48:38;;;;;;;;;27.00;24.33;;;;;11.76;38.40;102570.00;4975257;28;45278;-79
2022/03/23 05:51:03;;;;;;;;;28.67;25.33;;;;;12.13;38.57;102635.25;4983576;28;45503;-79
2022/03/23 05:53:29;;;;;;;;;24.67;23.33;;;;;11.92;38.68;102608.03;5058055;28;45384;-79
2022/03/23 05:55:54;;;;;;;;;23.67;22.67;;;;;12.08;38.99;102635.34;5000542;28;45500;-79
2022/03/23 05:58:20;;;;;;;;;26.00;24.33;;;;;11.79;39.27;102593.13;4975888;28;45500;-79
2022/03/23 06:00:45;;;;;;;;;37.75;31.00;;;;;11.92;38.90;102623.19;4975600;28;45995;-79
2022/03/23 06:03:10;;;;;;;;;36.50;30.75;;;;;11.61;39.59;102567.63;4975278;28;45473;-79
2022/03/23 06:05:36;;;;;;;;;33.00;27.25;;;;;11.91;39.72;102622.28;4974583;28;45453;-79
2022/03/23 06:08:02;;;;;;;;;27.50;24.00;;;;;11.90;39.38;102625.88;4981208;28;45505;-79
2022/03/23 06:10:27;;;;;;;;;28.33;27.33;;;;;11.78;39.28;102612.75;4990785;27;46488;-79
2022/03/23 06:12:52;;;;;;;;;27.00;25.00;;;;;11.66;39.57;102591.56;4962666;28;45314;-79
2022/03/23 06:15:18;;;;;;;;;29.75;28.25;;;;;11.97;39.79;102645.38;4975928;28;45402;-79
2022/03/23 06:17:43;;;;;;;;;34.25;31.50;;;;;11.81;39.68;102616.22;4975999;28;45388;-78
2022/03/23 06:20:10;;;;;;;;;32.25;29.50;;;;;11.92;40.02;102628.53;4975741;28;46971;-79
2022/03/23 06:22:35;;;;;;;;;29.00;28.33;;;;;11.69;39.98;102599.53;4958277;28;45819;-79
2022/03/23 06:25:01;;;;;;;;;29.00;24.33;;;;;11.67;40.19;102601.38;4975703;28;45386;-79
2022/03/23 06:27:27;;;;;;;;;31.50;29.50;;;;;11.87;40.78;102643.72;4975840;28;45530;-78
2022/03/23 06:29:52;;;;;;;;;30.67;29.33;;;;;11.71;40.42;102613.75;4975731;28;45398;-79
2022/03/23 06:32:18;;;;;;;;;31.33;27.33;;;;;11.64;40.68;102599.63;4975262;28;45390;-79
2022/03/23 06:34:43;;;;;;;;;26.67;24.33;;;;;11.68;40.67;102605.78;4975663;28;45427;-78
2022/03/23 06:37:09;;;;;;;;;28.33;25.67;;;;;11.61;40.40;102597.00;4975894;28;45396;-80
2022/03/23 06:39:35;;;;;;;;;31.00;29.33;;;;;11.92;40.99;102650.78;4975251;28;46276;-80
2022/03/23 06:42:01;;;;;;;;;30.67;27.00;;;;;11.71;40.69;102617.31;4975841;28;45462;-81
2022/03/23 06:44:26;;;;;;;;;28.33;27.33;;;;;12.06;40.66;102671.91;4975520;28;45418;-81
2022/03/23 06:46:52;;;;;;;;;27.00;22.33;;;;;12.13;40.42;102670.88;4976482;28;45535;-81
2022/03/23 06:49:17;;;;;;;;;36.00;31.75;;;;;11.82;40.59;102611.75;4972408;28;45518;-82
2022/03/23 06:51:43;;;;;;;;;33.75;30.75;;;;;12.28;40.42;102679.50;4991884;27;45516;-81
2022/03/23 06:54:09;;;;;;;;;33.25;29.50;;;;;12.32;40.25;102675.88;4994168;28;45419;-81
2022/03/23 06:56:34;;;;;;;;;56.50;44.75;;;;;12.41;40.50;102681.03;4995423;27;45528;-81
2022/03/23 06:59:00;;;;;;;;;42.25;33.50;;;;;12.49;40.08;102686.22;4995185;27;46041;-80
2022/03/23 07:01:25;;;;;;;;;38.75;31.50;;;;;12.45;39.71;102661.31;4994772;27;45377;-80
2022/03/23 07:03:51;;;;;;;;;33.67;28.67;;;;;12.65;40.42;102691.22;4976819;28;45320;-80
2022/03/23 07:06:16;;;;;;;;;36.25;32.00;;;;;12.58;39.70;102664.63;4972529;28;45652;-81
2022/03/23 07:11:29;;;;;;;;;40.25;34.75;;;;;12.84;39.56;102682.81;5020125;28;45368;-82
2022/03/23 07:13:55;;;;;;;;;40.25;35.50;;;;;12.42;38.90;102595.41;4952939;28;45518;-82
2022/03/23 07:16:20;;;;;;;;;36.25;33.75;;;;;13.01;39.12;102677.06;4980941;28;45596;-82
2022/03/23 07:18:46;;;;;;;;;31.67;30.67;;;;;13.18;38.46;102703.44;5060074;27;47460;-83
2022/03/23 07:21:11;;;;;;;;;38.33;31.00;;;;;12.84;38.46;102626.59;4997166;28;45499;-81
2022/03/23 07:23:37;;;;;;;;;34.67;33.33;;;;;13.11;38.75;102662.56;5043385;28;45510;-80
2022/03/23 07:26:03;;;;;;;;;40.67;34.00;;;;;12.86;38.31;102598.00;5003806;28;45662;-80
2022/03/23 07:28:28;;;;;;;;;41.00;34.67;;;;;13.57;38.84;102701.63;4982575;28;45497;-80
2022/03/23 07:30:55;;;;;;;;;35.67;33.00;;;;;13.06;38.17;102602.88;4985067;28;45640;-80
2022/03/23 07:33:21;;;;;;;;;42.33;35.67;;;;;13.24;38.15;102620.28;5004770;28;45470;-81
2022/03/23 07:35:46;;;;;;;;;39.33;31.67;;;;;13.88;38.08;102709.81;4984137;28;45361;-80
2022/03/23 07:38:12;;;;;;;;;42.00;37.33;;;;;13.96;37.52;102706.91;4972381;28;45858;-80
2022/03/23 07:40:37;;;;;;;;;45.67;36.00;;;;;14.00;37.85;102708.59;4959008;28;45427;-81
2022/03/23 07:43:04;;;;;;;;;41.00;36.67;;;;;13.61;37.62;102616.72;4970307;28;45329;-84
2022/03/23 07:45:29;;;;;;;;;42.25;36.25;;;;;14.25;37.65;102707.91;4983792;28;45486;-81
2022/03/23 07:47:55;;;;;;;;;42.25;36.50;;;;;14.30;37.21;102703.31;5017364;28;45505;-81
2022/03/23 07:50:20;;;;;;;;;40.67;36.00;;;;;14.29;36.89;102683.66;4996534;28;45533;-82
2022/03/23 07:52:45;;;;;;;;;38.33;33.67;;;;;14.33;36.89;102682.66;4973545;28;45448;-82
2022/03/23 07:55:11;;;;;;;;;29.00;25.33;;;;;14.60;35.91;102712.31;4974063;28;45417;-83
2022/03/23 07:57:36;;;;;;;;;32.00;29.00;;;;;14.44;35.37;102674.28;5037060;28;47125;-83
2022/03/23 08:00:03;;;;;;;;;27.67;24.67;;;;;14.23;34.04;102626.63;4959317;28;45506;-82
2022/03/23 08:02:28;;;;;;;;;20.33;20.33;;;;;14.66;34.64;102693.38;4981594;28;45383;-83
2022/03/23 08:04:54;;;;;;;;;31.00;22.00;;;;;14.69;33.92;102687.03;4969004;28;45406;-81
2022/03/23 08:07:20;;;;;;;;;28.67;26.00;;;;;13.68;33.92;102495.06;4967227;28;46144;-82
2022/03/23 08:09:46;;;;;;;;;25.33;22.67;;;;;14.70;33.68;102664.59;4974217;28;45382;-80
2022/03/23 08:12:11;;;;;;;;;25.67;23.00;;;;;15.09;33.67;102721.59;4983312;28;45614;-79
2022/03/23 08:14:37;;;;;;;;;35.00;30.67;;;;;15.18;33.35;102725.81;4974632;28;45433;-79
2022/03/23 08:17:02;;;;;;;;;22.00;21.00;;;;;15.14;32.71;102708.00;4981518;28;45995;-78
2022/03/23 08:19:28;;;;;;;;;29.67;25.33;;;;;15.29;32.68;102729.03;4977577;28;45405;-80
2022/03/23 08:21:54;;;;;;;;;21.00;21.00;;;;;15.33;32.66;102727.13;4984977;28;46340;-79
2022/03/23 08:24:19;;;;;;;;;36.33;30.00;;;;;15.31;32.72;102696.72;4986879;28;45503;-80
2022/03/23 08:26:45;;;;;;;;;30.00;27.67;;;;;15.55;32.26;102705.81;4986695;28;46496;-79
2022/03/23 08:29:10;;;;;;;;;33.33;26.00;;;;;16.01;32.45;102713.22;4981257;28;45519;-79
2022/03/23 08:31:36;;;;;;;;;30.33;26.00;;;;;16.62;31.18;102725.38;4985081;28;45525;-79
2022/03/23 08:34:02;;;;;;;;;26.67;23.00;;;;;16.55;30.27;102683.47;4959523;28;45572;-80
2022/03/23 08:36:28;;;;;;;;;20.33;19.00;;;;;16.85;29.65;102703.88;4975076;28;47181;-80
2022/03/23 08:38:53;;;;;;;;;29.00;25.33;;;;;17.01;29.38;102730.22;4970097;28;45318;-80
2022/03/23 08:41:19;;;;;;;;;28.00;27.00;;;;;17.15;29.87;102716.22;4964026;28;45593;-80
2022/03/23 08:43:44;;;;;;;;;31.33;28.67;;;;;17.44;29.29;102728.50;4965253;28;45493;-81
2022/03/23 08:46:13;;;;;;;;;26.67;23.67;;;;;17.61;28.86;102727.81;4977493;28;45710;-80
2022/03/23 08:48:38;;;;;;;;;22.00;22.00;;;;;17.64;28.31;102719.59;4959826;28;45300;-80
2022/03/23 08:51:04;;;;;;;;;29.33;22.00;;;;;17.81;27.90;102729.69;4964203;28;45383;-79
2022/03/23 08:53:30;;;;;;;;;19.33;19.33;;;;;17.86;27.49;102707.00;4963569;28;45554;-80
2022/03/23 08:55:55;;;;;;;;;22.00;20.00;;;;;18.03;26.92;102700.00;4971025;28;45551;-80
2022/03/23 08:58:21;;;;;;;;;30.00;24.00;;;;;18.44;27.03;102719.72;4962838;28;45387;-80
2022/03/23 09:00:46;;;;;;;;;47.25;39.50;;;;;18.81;26.75;102728.00;4969258;28;45548;-80
2022/03/23 09:03:11;;;;;;;;;32.67;29.33;;;;;18.91;26.39;102702.28;4963484;28;45432;-80
2022/03/23 09:05:37;;;;;;;;;29.00;27.00;;;;;19.21;25.98;102697.25;4960993;28;46030;-80
2022/03/23 09:08:02;;;;;;;;;26.00;22.33;;;;;19.57;25.89;102713.47;4976626;28;45835;-80
2022/03/23 09:10:28;;;;;;;;;30.00;26.67;;;;;19.92;25.33;102710.81;4978660;28;45584;-80
2022/03/23 09:12:53;;;;;;;;;26.67;22.33;;;;;20.14;24.56;102712.41;4962324;28;45739;-80
2022/03/23 09:15:19;;;;;;;;;38.67;32.33;;;;;20.38;24.87;102712.94;4964505;28;46117;-80
2022/03/23 09:17:45;;;;;;;;;34.00;30.00;;;;;20.64;24.26;102707.00;4963835;28;45394;-79
2022/03/23 09:20:12;;;;;;;;;28.33;25.33;;;;;21.05;23.99;102706.53;4971802;28;45570;-79
2022/03/23 09:22:41;;;;;;;;;22.33;22.33;;;;;21.54;23.37;102711.00;4967147;28;45453;-80
2022/03/23 09:25:09;;;;;;;;;17.67;17.67;;;;;22.20;22.16;102714.31;4967213;28;46255;-80
2022/03/23 09:27:42;;;;;;;;;17.00;15.67;;;;;23.21;20.76;102715.19;4966213;28;45481;-81
2022/03/23 09:30:10;;;;;;;;;57.50;46.50;;;;;24.12;20.50;102701.78;4949265;28;45498;-81
2022/03/23 09:32:36;;;;;;;;;13.33;13.00;;;;;24.99;18.55;102691.91;4970212;28;45362;-81
2022/03/23 09:35:01;;;;;;;;;16.00;15.00;;;;;26.01;18.23;102706.94;4963754;28;45376;-81
2022/03/23 09:40:11;;;;;;;;;16.00;16.00;;;;;27.96;16.60;102690.94;4977474;28;45390;-81
2022/03/23 09:42:39;;;;;;;;;17.67;15.67;;;;;28.92;16.18;102669.63;4967618;28;45406;-81
2022/03/23 09:45:05;;;;;;;;;20.67;17.67;;;;;30.06;15.24;102699.22;4973755;28;45531;-81
2022/03/23 09:47:31;;;;;;;;;17.67;16.33;;;;;30.86;14.77;102687.78;4973525;28;45669;-81
2022/03/23 09:49:56;;;;;;;;;14.33;14.33;;;;;31.67;14.38;102685.06;4976818;28;45466;-81
2022/03/23 09:52:22;;;;;;;;;19.33;16.00;;;;;32.43;13.47;102666.09;4971261;28;45581;-82
2022/03/23 09:54:47;;;;;;;;;23.67;19.67;;;;;33.58;13.29;102683.97;4966551;28;45373;-81
2022/03/23 09:57:13;;;;;;;;;25.33;24.00;;;;;34.49;12.65;102688.38;4965632;28;45688;-81
2022/03/23 09:59:39;;;;;;;;;27.00;27.00;;;;;35.46;11.45;102677.81;4964332;28;45528;-80
2022/03/23 10:02:05;;;;;;;;;19.00;19.00;;;;;36.57;11.11;102692.00;4971463;28;45432;-81
2022/03/23 10:04:48;;;;;;;;;24.33;18.00;;;;;37.67;10.51;102692.91;4965441;28;45403;-81
2022/03/23 10:07:17;;;;;;;;;52.67;34.67;;;;;38.52;10.30;102694.66;4975428;28;45375;-81
2022/03/23 10:10:19;;;;;;;;;22.00;19.33;;;;;39.52;10.02;102688.56;4962460;27;45661;-81
2022/03/23 10:12:54;;;;;;;;;20.00;17.67;;;;;40.59;9.08;102689.31;5005464;27;45276;-82
2022/03/23 10:15:42;;;;;;;;;15.00;14.00;;;;;41.49;8.73;102683.66;4990205;28;46479;-81
2022/03/23 10:18:38;;;;;;;;;19.00;18.00;;;;;42.12;8.62;102683.59;4978581;28;45493;-87
2022/03/23 10:21:03;;;;;;;;;17.33;17.00;;;;;42.57;8.01;102666.47;4965114;28;45440;-88
2022/03/23 10:23:30;;;;;;;;;17.67;17.33;;;;;42.92;7.57;102664.94;4948363;28;45370;-88
2022/03/23 10:25:56;;;;;;;;;16.00;15.00;;;;;43.22;7.17;102673.38;4966193;28;46224;-87
2022/03/23 10:28:21;;;;;;;;;19.00;15.67;;;;;43.67;7.10;102669.19;4969914;27;45490;-86
2022/03/23 10:30:47;;;;;;;;;17.33;15.33;;;;;44.09;7.07;102691.59;4963057;28;45561;-88
2022/03/23 10:33:22;;;;;;;;;14.00;14.00;;;;;44.25;6.35;102660.78;4967609;28;45720;-88
2022/03/23 10:35:47;;;;;;;;;14.00;13.33;;;;;44.71;6.98;102674.13;4964360;28;46163;-87
2022/03/23 10:38:23;;;;;;;;;16.00;15.00;;;;;44.89;6.14;102690.84;4961992;28;45463;-88
2022/03/23 10:40:52;;;;;;;;;14.00;14.00;;;;;44.89;6.86;102676.78;4955631;28;45358;-88
2022/03/23 10:43:36;;;;;;;;;14.33;14.33;;;;;44.55;7.25;102630.75;4963661;28;45427;-89
2022/03/23 10:46:11;;;;;;;;;17.00;15.67;;;;;44.63;6.52;102669.72;4965542;28;46127;-87
2022/03/23 10:48:50;;;;;;;;;15.33;14.67;;;;;44.14;7.23;102638.28;4967841;28;45350;-86
2022/03/23 10:51:25;;;;;;;;;17.67;17.00;;;;;43.54;7.21;102639.38;4959736;28;45417;-88
2022/03/23 10:53:51;;;;;;;;;17.33;16.00;;;;;43.27;7.03;102669.84;4959898;28;45404;-86
2022/03/23 10:56:27;;;;;;;;;14.00;14.00;;;;;42.76;6.92;102653.28;4969702;28;45445;-84
2022/03/23 10:59:13;;;;;;;;;17.00;17.00;;;;;41.83;7.67;102589.88;4971554;28;45449;-85
2022/03/23 11:01:55;;;;;;;;;15.33;13.33;;;;;41.71;7.89;102654.22;4968971;28;45426;-85
2022/03/23 11:04:21;;;;;;;;;23.00;18.00;;;;;41.22;7.20;102652.25;4969496;28;45519;-86
2022/03/23 11:06:46;;;;;;;;;22.00;18.33;;;;;40.56;7.99;102640.28;4988293;28;45546;-86
2022/03/23 11:18:06;;;;;;;;;23.67;20.67;;;;;38.94;8.80;102634.16;4900723;28;45918;-86
2022/03/23 11:20:43;;;;;;;;;17.00;15.00;;;;;38.62;8.65;102624.56;4894146;28;45440;-86
2022/03/23 11:23:30;;;;;;;;;16.67;16.67;;;;;38.22;8.87;102624.38;4910844;28;45556;-89
2022/03/23 11:26:00;;;;;;;;;18.33;17.33;;;;;37.87;8.20;102637.41;4910378;28;45461;-89
2022/03/23 11:28:28;;;;;;;;;18.00;17.00;;;;;37.28;8.78;102581.03;4911524;28;45661;-91
2022/03/23 11:30:55;;;;;;;;;18.00;17.33;;;;;37.17;8.78;102587.97;4913864;28;45382;-90
2022/03/23 11:33:26;;;;;;;;;20.00;20.00;;;;;36.83;8.93;102596.16;4896827;28;45737;-91